createdAt,value
2023-05-16T00:00:19.183Z,544.00
2023-05-16T00:01:19.218Z,545.00
2023-05-16T00:02:19.280Z,545.00
2023-05-16T00:03:19.349Z,546.00
2023-05-16T00:04:19.340Z,545.00
2023-05-16T00:05:19.366Z,547.00
2023-05-16T00:06:19.359Z,547.00
2023-05-16T00:07:19.428Z,545.00
2023-05-16T00:08:19.436Z,547.00
2023-05-16T00:09:19.478Z,546.00
2023-05-16T00:10:19.513Z,546.00
2023-05-16T00:11:19.511Z,548.00
2023-05-16T00:12:19.668Z,546.00
2023-05-16T00:13:19.599Z,545.00
2023-05-16T00:14:19.728Z,543.00
2023-05-16T00:15:19.811Z,543.00
2023-05-16T00:16:19.715Z,542.00
2023-05-16T00:17:19.738Z,542.00
2023-05-16T00:18:19.767Z,539.00
2023-05-16T00:19:19.854Z,538.00
2023-05-16T00:20:19.841Z,538.00
2023-05-16T00:21:21.699Z,538.00
2023-05-16T00:22:19.881Z,538.00
2023-05-16T00:23:19.884Z,538.00
2023-05-16T00:24:19.872Z,538.00
2023-05-16T00:25:19.865Z,539.00
2023-05-16T00:26:19.867Z,537.00
2023-05-16T00:27:19.879Z,539.00
2023-05-16T00:28:19.885Z,540.00
2023-05-16T00:29:19.847Z,543.00
2023-05-16T00:30:19.829Z,543.00
2023-05-16T00:31:19.899Z,540.00
2023-05-16T00:32:20.011Z,541.00
2023-05-16T00:33:19.880Z,541.00
2023-05-16T00:34:19.861Z,541.00
2023-05-16T00:35:19.803Z,540.00
2023-05-16T00:36:20.981Z,540.00
2023-05-16T00:37:19.802Z,540.00
2023-05-16T00:38:19.798Z,541.00
2023-05-16T00:39:19.773Z,542.00
2023-05-16T00:40:19.767Z,539.00
2023-05-16T00:41:19.761Z,538.00
2023-05-16T00:42:19.804Z,538.00
2023-05-16T00:43:19.756Z,535.00
2023-05-16T00:44:19.747Z,533.00
2023-05-16T00:45:19.741Z,534.00
2023-05-16T00:46:19.809Z,534.00
2023-05-16T00:47:19.729Z,535.00
2023-05-16T00:48:19.718Z,535.00
2023-05-16T00:49:19.703Z,535.00
2023-05-16T00:50:19.721Z,536.00
2023-05-16T00:51:19.716Z,537.00
2023-05-16T00:52:19.702Z,538.00
2023-05-16T00:53:19.686Z,538.00
2023-05-16T00:54:19.690Z,538.00
2023-05-16T00:55:19.659Z,537.00
2023-05-16T00:56:19.671Z,538.00
2023-05-16T00:57:19.662Z,538.00
2023-05-16T00:58:19.666Z,538.00
2023-05-16T00:59:19.670Z,538.00
2023-05-16T01:00:19.677Z,536.00
2023-05-16T01:01:19.718Z,535.00
2023-05-16T01:02:19.689Z,534.00
2023-05-16T01:03:19.857Z,534.00
2023-05-16T01:04:19.618Z,531.00
2023-05-16T01:05:19.610Z,533.00
2023-05-16T01:06:19.639Z,534.00
2023-05-16T01:07:19.607Z,536.00
2023-05-16T01:08:19.577Z,537.00
2023-05-16T01:09:19.578Z,538.00
2023-05-16T01:10:19.584Z,536.00
2023-05-16T01:11:19.546Z,536.00
2023-05-16T01:12:19.575Z,536.00
2023-05-16T01:13:19.578Z,537.00
2023-05-16T01:14:19.549Z,538.00
2023-05-16T01:15:19.505Z,539.00
2023-05-16T01:16:19.565Z,539.00
2023-05-16T01:17:19.515Z,537.00
2023-05-16T01:18:19.569Z,538.00
2023-05-16T01:19:19.548Z,537.00
2023-05-16T01:20:19.500Z,534.00
2023-05-16T01:21:19.462Z,533.00
2023-05-16T01:22:19.489Z,536.00
2023-05-16T01:23:19.495Z,536.00
2023-05-16T01:24:19.458Z,535.00
2023-05-16T01:25:19.517Z,534.00
2023-05-16T01:26:19.418Z,534.00
2023-05-16T01:27:19.448Z,531.00
2023-05-16T01:28:19.445Z,533.00
2023-05-16T01:29:19.439Z,534.00
2023-05-16T01:30:19.400Z,535.00
2023-05-16T01:31:19.474Z,532.00
2023-05-16T01:32:19.400Z,531.00
2023-05-16T01:33:19.382Z,531.00
2023-05-16T01:34:19.427Z,531.00
2023-05-16T01:35:19.424Z,533.00
2023-05-16T01:36:19.490Z,533.00
2023-05-16T01:37:19.511Z,533.00
2023-05-16T01:38:19.559Z,533.00
2023-05-16T01:39:19.609Z,534.00
2023-05-16T01:40:19.638Z,532.00
2023-05-16T01:41:19.633Z,534.00
2023-05-16T01:42:19.671Z,534.00
2023-05-16T01:43:19.714Z,528.00
2023-05-16T01:44:19.797Z,528.00
2023-05-16T01:45:19.806Z,527.00
2023-05-16T01:46:19.847Z,527.00
2023-05-16T01:47:19.877Z,528.00
2023-05-16T01:48:19.937Z,526.00
2023-05-16T01:49:19.975Z,526.00
2023-05-16T01:50:19.977Z,526.00
2023-05-16T01:51:20.030Z,526.00
2023-05-16T01:52:20.057Z,528.00
2023-05-16T01:53:20.128Z,531.00
2023-05-16T01:54:20.144Z,535.00
2023-05-16T01:55:20.183Z,534.00
2023-05-16T01:56:20.226Z,534.00
2023-05-16T01:57:20.280Z,534.00
2023-05-16T01:58:20.331Z,534.00
2023-05-16T01:59:20.337Z,533.00
2023-05-16T02:00:20.380Z,533.00
2023-05-16T02:01:20.476Z,535.00
2023-05-16T02:02:20.530Z,534.00
2023-05-16T02:03:20.528Z,536.00
2023-05-16T02:04:20.656Z,537.00
2023-05-16T02:05:20.560Z,537.00
2023-05-16T02:06:20.617Z,538.00
2023-05-16T02:07:20.666Z,540.00
2023-05-16T02:08:20.748Z,540.00
2023-05-16T02:09:20.825Z,537.00
2023-05-16T02:10:20.821Z,536.00
2023-05-16T02:11:20.879Z,533.00
2023-05-16T02:12:20.865Z,533.00
2023-05-16T02:13:20.914Z,531.00
2023-05-16T02:14:20.942Z,531.00
2023-05-16T02:15:21.004Z,530.00
2023-05-16T02:16:21.074Z,527.00
2023-05-16T02:17:21.151Z,529.00
2023-05-16T02:18:21.085Z,526.00
2023-05-16T02:19:21.146Z,529.00
2023-05-16T02:20:21.171Z,535.00
2023-05-16T02:21:21.224Z,534.00
2023-05-16T02:22:21.261Z,534.00
2023-05-16T02:23:21.295Z,531.00
2023-05-16T02:24:21.333Z,531.00
2023-05-16T02:25:21.342Z,531.00
2023-05-16T02:26:21.434Z,534.00
2023-05-16T02:27:21.427Z,534.00
2023-05-16T02:28:21.481Z,538.00
2023-05-16T02:29:21.502Z,539.00
2023-05-16T02:30:21.535Z,540.00
2023-05-16T02:31:21.653Z,538.00
2023-05-16T02:32:21.653Z,535.00
2023-05-16T02:33:22.164Z,533.00
2023-05-16T02:34:21.697Z,532.00
2023-05-16T02:35:21.743Z,530.00
2023-05-16T02:36:21.787Z,529.00
2023-05-16T02:37:21.839Z,532.00
2023-05-16T02:38:21.887Z,531.00
2023-05-16T02:39:21.906Z,531.00
2023-05-16T02:40:21.960Z,532.00
2023-05-16T02:41:21.995Z,530.00
2023-05-16T02:42:22.019Z,528.00
2023-05-16T02:43:22.092Z,529.00
2023-05-16T02:44:22.108Z,531.00
2023-05-16T02:45:22.172Z,530.00
2023-05-16T02:46:22.253Z,530.00
2023-05-16T02:47:22.272Z,529.00
2023-05-16T02:48:22.304Z,531.00
2023-05-16T02:49:22.317Z,531.00
2023-05-16T02:50:22.358Z,535.00
2023-05-16T02:51:22.418Z,532.00
2023-05-16T02:52:22.444Z,532.00
2023-05-16T02:53:22.504Z,531.00
2023-05-16T02:54:22.508Z,531.00
2023-05-16T02:55:22.840Z,527.00
2023-05-16T02:56:22.573Z,526.00
2023-05-16T02:57:22.638Z,527.00
2023-05-16T02:58:22.657Z,525.00
2023-05-16T02:59:22.680Z,525.00
2023-05-16T03:00:22.732Z,524.00
2023-05-16T03:01:22.869Z,522.00
2023-05-16T03:02:22.900Z,519.00
2023-05-16T03:03:22.895Z,520.00
2023-05-16T03:04:22.878Z,520.00
2023-05-16T03:05:23.873Z,522.00
2023-05-16T03:06:23.087Z,524.00
2023-05-16T03:07:23.132Z,525.00
2023-05-16T03:08:23.166Z,526.00
2023-05-16T03:09:23.200Z,529.00
2023-05-16T03:10:23.227Z,528.00
2023-05-16T03:11:23.266Z,529.00
2023-05-16T03:12:23.299Z,529.00
2023-05-16T03:13:23.370Z,526.00
2023-05-16T03:14:23.387Z,526.00
2023-05-16T03:15:23.418Z,526.00
2023-05-16T03:16:23.548Z,525.00
2023-05-16T03:17:23.539Z,524.00
2023-05-16T03:18:23.652Z,523.00
2023-05-16T03:19:23.636Z,523.00
2023-05-16T03:20:23.622Z,522.00
2023-05-16T03:21:23.657Z,523.00
2023-05-16T03:22:23.693Z,525.00
2023-05-16T03:23:23.726Z,525.00
2023-05-16T03:24:23.790Z,526.00
2023-05-16T03:25:23.791Z,525.00
2023-05-16T03:26:23.828Z,524.00
2023-05-16T03:27:23.882Z,521.00
2023-05-16T03:28:23.922Z,521.00
2023-05-16T03:29:23.970Z,519.00
2023-05-16T03:30:23.987Z,522.00
2023-05-16T03:31:24.090Z,523.00
2023-05-16T03:32:24.088Z,523.00
2023-05-16T03:33:24.100Z,522.00
2023-05-16T03:34:24.143Z,523.00
2023-05-16T03:35:24.197Z,524.00
2023-05-16T03:36:24.217Z,524.00
2023-05-16T03:37:24.280Z,524.00
2023-05-16T03:38:24.292Z,525.00
2023-05-16T03:39:24.349Z,525.00
2023-05-16T03:40:24.377Z,525.00
2023-05-16T03:41:24.429Z,527.00
2023-05-16T03:42:24.469Z,524.00
2023-05-16T03:43:24.510Z,525.00
2023-05-16T03:44:24.543Z,524.00
2023-05-16T03:45:24.705Z,525.00
2023-05-16T03:46:24.684Z,525.00
2023-05-16T03:47:24.725Z,527.00
2023-05-16T03:48:24.708Z,525.00
2023-05-16T03:49:24.754Z,525.00
2023-05-16T03:50:24.766Z,523.00
2023-05-16T03:51:24.805Z,522.00
2023-05-16T03:52:24.886Z,523.00
2023-05-16T03:53:24.908Z,523.00
2023-05-16T03:54:24.945Z,522.00
2023-05-16T03:55:25.184Z,522.00
2023-05-16T03:56:25.031Z,522.00
2023-05-16T03:57:25.071Z,520.00
2023-05-16T03:58:25.135Z,521.00
2023-05-16T03:59:25.161Z,523.00
2023-05-16T04:00:25.189Z,521.00
2023-05-16T04:01:25.218Z,521.00
2023-05-16T04:02:26.305Z,520.00
2023-05-16T04:03:25.353Z,520.00
2023-05-16T04:04:25.377Z,520.00
2023-05-16T04:05:25.766Z,522.00
2023-05-16T04:06:25.414Z,524.00
2023-05-16T04:07:25.466Z,525.00
2023-05-16T04:08:25.530Z,526.00
2023-05-16T04:09:25.591Z,527.00
2023-05-16T04:10:25.597Z,528.00
2023-05-16T04:11:25.636Z,526.00
2023-05-16T04:12:25.671Z,521.00
2023-05-16T04:13:25.822Z,518.00
2023-05-16T04:14:25.781Z,518.00
2023-05-16T04:15:26.152Z,520.00
2023-05-16T04:16:25.846Z,519.00
2023-05-16T04:17:25.917Z,518.00
2023-05-16T04:18:25.919Z,518.00
2023-05-16T04:19:25.991Z,518.00
2023-05-16T04:20:25.967Z,519.00
2023-05-16T04:21:26.022Z,516.00
2023-05-16T04:22:26.096Z,516.00
2023-05-16T04:23:26.101Z,516.00
2023-05-16T04:24:26.138Z,514.00
2023-05-16T04:25:26.450Z,515.00
2023-05-16T04:26:26.278Z,518.00
2023-05-16T04:27:26.273Z,519.00
2023-05-16T04:28:26.322Z,516.00
2023-05-16T04:29:26.365Z,517.00
2023-05-16T04:30:26.419Z,518.00
2023-05-16T04:31:26.485Z,518.00
2023-05-16T04:32:26.495Z,519.00
2023-05-16T04:33:26.537Z,519.00
2023-05-16T04:34:26.554Z,521.00
2023-05-16T04:35:26.787Z,520.00
2023-05-16T04:36:26.660Z,522.00
2023-05-16T04:37:26.771Z,522.00
2023-05-16T04:38:26.746Z,520.00
2023-05-16T04:39:26.792Z,519.00
2023-05-16T04:40:26.848Z,516.00
2023-05-16T04:41:26.893Z,513.00
2023-05-16T04:42:26.940Z,512.00
2023-05-16T04:43:26.990Z,514.00
2023-05-16T04:44:27.001Z,512.00
2023-05-16T04:45:27.246Z,511.00
2023-05-16T04:46:27.144Z,510.00
2023-05-16T04:47:27.149Z,510.00
2023-05-16T04:48:27.151Z,512.00
2023-05-16T04:49:27.190Z,512.00
2023-05-16T04:50:27.270Z,513.00
2023-05-16T04:51:27.339Z,515.00
2023-05-16T04:52:27.311Z,515.00
2023-05-16T04:53:27.355Z,515.00
2023-05-16T04:54:27.425Z,516.00
2023-05-16T04:55:27.707Z,515.00
2023-05-16T04:56:27.500Z,514.00
2023-05-16T04:57:27.561Z,514.00
2023-05-16T04:58:27.599Z,514.00
2023-05-16T04:59:27.636Z,514.00
2023-05-16T05:00:27.861Z,515.00
2023-05-16T05:01:34.784Z,515.00
2023-05-16T05:02:27.729Z,516.00
2023-05-16T05:03:27.666Z,513.00
2023-05-16T05:04:27.728Z,514.00
2023-05-16T05:05:27.905Z,515.00
2023-05-16T05:06:27.678Z,515.00
2023-05-16T05:07:27.659Z,512.00
2023-05-16T05:08:27.666Z,512.00
2023-05-16T05:09:27.677Z,512.00
2023-05-16T05:10:27.690Z,513.00
2023-05-16T05:11:27.620Z,514.00
2023-05-16T05:12:27.615Z,515.00
2023-05-16T05:13:27.595Z,515.00
2023-05-16T05:14:27.590Z,517.00
2023-05-16T05:15:27.877Z,516.00
2023-05-16T05:16:27.614Z,515.00
2023-05-16T05:17:27.642Z,515.00
2023-05-16T05:18:27.611Z,514.00
2023-05-16T05:19:27.596Z,514.00
2023-05-16T05:20:27.582Z,516.00
2023-05-16T05:21:27.542Z,516.00
2023-05-16T05:22:27.549Z,518.00
2023-05-16T05:23:27.532Z,517.00
2023-05-16T05:24:27.527Z,515.00
2023-05-16T05:25:27.781Z,514.00
2023-05-16T05:26:27.505Z,512.00
2023-05-16T05:27:27.511Z,511.00
2023-05-16T05:28:27.485Z,507.00
2023-05-16T05:29:27.488Z,508.00
2023-05-16T05:30:27.509Z,507.00
2023-05-16T05:31:27.547Z,510.00
2023-05-16T05:32:27.558Z,512.00
2023-05-16T05:33:27.478Z,512.00
2023-05-16T05:34:27.777Z,512.00
2023-05-16T05:35:27.716Z,520.00
2023-05-16T05:36:27.547Z,529.00
2023-05-16T05:37:27.571Z,537.00
2023-05-16T05:38:27.555Z,553.00
2023-05-16T05:39:27.611Z,564.00
2023-05-16T05:40:27.623Z,575.00
2023-05-16T05:41:27.682Z,596.00
2023-05-16T05:42:27.684Z,608.00
2023-05-16T05:43:27.699Z,623.00
2023-05-16T05:44:27.890Z,649.00
2023-05-16T05:45:27.998Z,666.00
2023-05-16T05:46:34.794Z,693.00
2023-05-16T05:47:27.871Z,725.00
2023-05-16T05:48:27.789Z,751.00
2023-05-16T05:49:27.783Z,776.00
2023-05-16T05:50:27.743Z,810.00
2023-05-16T05:51:27.726Z,836.00
2023-05-16T05:52:27.725Z,844.00
2023-05-16T05:53:27.759Z,854.00
2023-05-16T05:54:27.727Z,872.00
2023-05-16T05:55:27.872Z,891.00
2023-05-16T05:56:27.690Z,908.00
2023-05-16T05:57:27.703Z,922.00
2023-05-16T05:58:27.713Z,944.00
2023-05-16T05:59:27.712Z,969.00
2023-05-16T06:00:27.683Z,990.00
2023-05-16T06:01:27.705Z,1003.00
2023-05-16T06:02:27.772Z,1021.00
2023-05-16T06:03:27.772Z,1047.00
2023-05-16T06:04:27.674Z,1058.00
2023-05-16T06:05:27.847Z,1069.00
2023-05-16T06:06:27.661Z,1073.00
2023-05-16T06:07:27.677Z,1078.00
2023-05-16T06:08:27.642Z,1083.00
2023-05-16T06:09:27.636Z,1087.00
2023-05-16T06:10:27.628Z,1090.00
2023-05-16T06:11:27.595Z,1092.00
2023-05-16T06:12:27.591Z,1093.00
2023-05-16T06:13:27.751Z,1094.00
2023-05-16T06:14:27.575Z,1097.00
2023-05-16T06:15:27.933Z,1098.00
2023-05-16T06:16:27.604Z,1094.00
2023-05-16T06:17:27.648Z,1095.00
2023-05-16T06:18:27.572Z,1095.00
2023-05-16T06:19:27.582Z,1095.00
2023-05-16T06:20:27.544Z,1093.00
2023-05-16T06:21:27.517Z,1089.00
2023-05-16T06:22:27.525Z,1090.00
2023-05-16T06:23:27.563Z,1092.00
2023-05-16T06:24:27.527Z,1089.00
2023-05-16T06:25:27.665Z,1089.00
2023-05-16T06:26:27.498Z,1087.00
2023-05-16T06:27:27.503Z,1087.00
2023-05-16T06:28:27.512Z,1087.00
2023-05-16T06:29:27.498Z,1085.00
2023-05-16T06:30:27.486Z,1082.00
2023-05-16T06:31:27.483Z,1080.00
2023-05-16T06:32:27.577Z,1075.00
2023-05-16T06:33:27.579Z,1072.00
2023-05-16T06:34:27.502Z,1084.00
2023-05-16T06:35:27.646Z,1099.00
2023-05-16T06:36:27.478Z,1159.00
2023-05-16T06:37:27.547Z,1202.00
2023-05-16T06:38:27.621Z,1194.00
2023-05-16T06:39:27.610Z,1205.00
2023-05-16T06:40:27.663Z,1233.00
2023-05-16T06:41:27.633Z,1136.00
2023-05-16T06:42:27.591Z,990.00
2023-05-16T06:43:27.642Z,967.00
2023-05-16T06:44:27.674Z,889.00
2023-05-16T06:45:27.993Z,936.00
2023-05-16T06:46:27.827Z,941.00
2023-05-16T06:47:27.809Z,847.00
2023-05-16T06:48:27.856Z,866.00
2023-05-16T06:49:27.869Z,861.00
2023-05-16T06:50:27.908Z,853.00
2023-05-16T06:51:27.913Z,983.00
2023-05-16T06:52:27.982Z,940.00
2023-05-16T06:53:27.984Z,1074.00
2023-05-16T06:54:27.989Z,925.00
2023-05-16T06:55:28.199Z,906.00
2023-05-16T06:56:28.081Z,1007.00
2023-05-16T06:57:28.099Z,821.00
2023-05-16T06:58:28.085Z,815.00
2023-05-16T06:59:28.278Z,822.00
2023-05-16T07:00:28.326Z,832.00
2023-05-16T07:01:28.345Z,789.00
2023-05-16T07:02:28.280Z,789.00
2023-05-16T07:03:28.361Z,790.00
2023-05-16T07:04:28.312Z,787.00
2023-05-16T07:05:28.499Z,785.00
2023-05-16T07:06:28.350Z,788.00
2023-05-16T07:07:28.387Z,791.00
2023-05-16T07:08:28.398Z,793.00
2023-05-16T07:09:28.483Z,792.00
2023-05-16T07:10:29.313Z,800.00
2023-05-16T07:11:28.462Z,818.00
2023-05-16T07:12:28.492Z,808.00
2023-05-16T07:13:28.535Z,793.00
2023-05-16T07:14:28.544Z,789.00
2023-05-16T07:15:28.824Z,821.00
2023-05-16T07:16:28.700Z,836.00
2023-05-16T07:17:28.662Z,837.00
2023-05-16T07:18:28.662Z,771.00
2023-05-16T07:19:28.850Z,777.00
2023-05-16T07:20:28.738Z,779.00
2023-05-16T07:21:28.841Z,778.00
2023-05-16T07:22:28.775Z,776.00
2023-05-16T07:23:28.793Z,773.00
2023-05-16T07:24:28.836Z,775.00
2023-05-16T07:25:29.577Z,776.00
2023-05-16T07:26:28.918Z,772.00
2023-05-16T07:27:28.928Z,777.00
2023-05-16T07:28:28.974Z,783.00
2023-05-16T07:29:29.068Z,780.00
2023-05-16T07:30:29.375Z,769.00
2023-05-16T07:31:29.121Z,761.00
2023-05-16T07:32:29.154Z,785.00
2023-05-16T07:33:29.152Z,800.00
2023-05-16T07:34:29.225Z,804.00
2023-05-16T07:35:29.473Z,812.00
2023-05-16T07:36:29.274Z,820.00
2023-05-16T07:37:31.090Z,812.00
2023-05-16T07:38:29.381Z,785.00
2023-05-16T07:39:29.419Z,777.00
2023-05-16T07:40:29.842Z,777.00
2023-05-16T07:41:29.577Z,820.00
2023-05-16T07:42:29.604Z,843.00
2023-05-16T07:43:30.321Z,950.00
2023-05-16T07:44:29.680Z,846.00
2023-05-16T07:45:30.180Z,814.00
2023-05-16T07:46:30.055Z,805.00
2023-05-16T07:47:30.016Z,788.00
2023-05-16T07:48:29.835Z,782.00
2023-05-16T07:49:29.872Z,870.00
2023-05-16T07:50:29.896Z,864.00
2023-05-16T07:51:29.959Z,854.00
2023-05-16T07:52:29.984Z,841.00
2023-05-16T07:53:29.991Z,843.00
2023-05-16T07:54:30.045Z,846.00
2023-05-16T07:55:30.082Z,838.00
2023-05-16T07:56:30.104Z,750.00
2023-05-16T07:57:30.154Z,720.00
2023-05-16T07:58:30.210Z,703.00
2023-05-16T07:59:30.274Z,691.00
2023-05-16T08:00:30.263Z,688.00
2023-05-16T08:01:30.279Z,687.00
2023-05-16T08:02:30.596Z,690.00
2023-05-16T08:03:30.578Z,706.00
2023-05-16T08:04:30.427Z,709.00
2023-05-16T08:05:30.844Z,721.00
2023-05-16T08:06:30.471Z,731.00
2023-05-16T08:07:30.585Z,734.00
2023-05-16T08:08:30.607Z,742.00
2023-05-16T08:09:30.654Z,754.00
2023-05-16T08:10:30.666Z,766.00
2023-05-16T08:11:30.704Z,771.00
2023-05-16T08:12:30.721Z,730.00
2023-05-16T08:13:30.771Z,819.00
2023-05-16T08:14:30.774Z,821.00
2023-05-16T08:15:30.835Z,710.00
2023-05-16T08:16:30.980Z,735.00
2023-05-16T08:17:31.271Z,758.00
2023-05-16T08:18:30.959Z,792.00
2023-05-16T08:19:31.039Z,807.00
2023-05-16T08:20:30.972Z,799.00
2023-05-16T08:21:30.982Z,803.00
2023-05-16T08:22:30.998Z,803.00
2023-05-16T08:23:31.041Z,747.00
2023-05-16T08:24:31.076Z,720.00
2023-05-16T08:25:31.363Z,823.00
2023-05-16T08:26:31.114Z,836.00
2023-05-16T08:27:31.119Z,830.00
2023-05-16T08:28:31.202Z,785.00
2023-05-16T08:29:31.185Z,708.00
2023-05-16T08:30:31.545Z,771.00
2023-05-16T08:31:31.284Z,804.00
2023-05-16T08:32:31.314Z,769.00
2023-05-16T08:33:31.356Z,748.00
2023-05-16T08:34:31.370Z,735.00
2023-05-16T08:35:31.387Z,725.00
2023-05-16T08:36:31.876Z,789.00
2023-05-16T08:37:31.453Z,765.00
2023-05-16T08:38:31.546Z,796.00
2023-05-16T08:39:31.572Z,825.00
2023-05-16T08:40:31.622Z,847.00
2023-05-16T08:41:31.910Z,853.00
2023-05-16T08:42:31.634Z,864.00
2023-05-16T08:43:31.651Z,884.00
2023-05-16T08:44:31.653Z,925.00
2023-05-16T08:45:31.678Z,945.00
2023-05-16T08:46:31.756Z,954.00
2023-05-16T08:47:31.849Z,1016.00
2023-05-16T08:48:31.761Z,1037.00
2023-05-16T08:49:31.784Z,1036.00
2023-05-16T08:50:31.842Z,1000.00
2023-05-16T08:51:32.342Z,1006.00
2023-05-16T08:52:31.893Z,862.00
2023-05-16T08:53:31.896Z,843.00
2023-05-16T08:54:31.926Z,759.00
2023-05-16T08:55:31.899Z,745.00
2023-05-16T08:56:32.376Z,712.00
2023-05-16T08:57:32.003Z,703.00
2023-05-16T08:58:32.016Z,707.00
2023-05-16T08:59:32.042Z,704.00
2023-05-16T09:00:32.086Z,705.00
2023-05-16T09:01:32.468Z,714.00
2023-05-16T09:02:32.175Z,715.00
2023-05-16T09:03:32.214Z,699.00
2023-05-16T09:04:32.319Z,686.00
2023-05-16T09:05:32.251Z,678.00
2023-05-16T09:06:32.328Z,676.00
2023-05-16T09:07:32.327Z,683.00
2023-05-16T09:08:32.367Z,716.00
2023-05-16T09:09:32.396Z,672.00
2023-05-16T09:10:32.419Z,645.00
2023-05-16T09:11:33.066Z,642.00
2023-05-16T09:12:32.512Z,646.00
2023-05-16T09:13:32.575Z,662.00
2023-05-16T09:14:32.568Z,676.00
2023-05-16T09:15:32.702Z,686.00
2023-05-16T09:16:32.695Z,750.00
2023-05-16T09:17:39.948Z,728.00
2023-05-16T09:18:32.788Z,720.00
2023-05-16T09:19:32.721Z,717.00
2023-05-16T09:20:32.713Z,714.00
2023-05-16T09:21:33.371Z,710.00
2023-05-16T09:22:32.689Z,709.00
2023-05-16T09:23:33.711Z,701.00
2023-05-16T09:24:32.759Z,628.00
2023-05-16T09:25:32.893Z,648.00
2023-05-16T09:26:32.786Z,645.00
2023-05-16T09:27:32.808Z,618.00
2023-05-16T09:28:33.161Z,603.00
2023-05-16T09:29:34.100Z,597.00
2023-05-16T09:30:33.008Z,593.00
2023-05-16T09:31:33.080Z,550.00
2023-05-16T09:32:33.206Z,545.00
2023-05-16T09:33:33.189Z,554.00
2023-05-16T09:34:33.224Z,567.00
2023-05-16T09:36:33.294Z,606.00
2023-05-16T09:37:33.297Z,600.00
2023-05-16T09:38:33.284Z,601.00
2023-05-16T09:39:33.242Z,593.00
2023-05-16T09:40:33.266Z,586.00
2023-05-16T09:41:33.382Z,584.00
2023-05-16T09:42:33.238Z,624.00
2023-05-16T09:43:34.982Z,623.00
2023-05-16T09:44:33.255Z,665.00
2023-05-16T09:45:33.220Z,655.00
2023-05-16T09:46:33.232Z,650.00
2023-05-16T09:47:33.263Z,593.00
2023-05-16T09:48:33.238Z,593.00
2023-05-16T09:49:33.236Z,588.00
2023-05-16T09:50:33.197Z,576.00
2023-05-16T09:51:33.171Z,564.00
2023-05-16T09:52:33.189Z,551.00
2023-05-16T09:53:33.924Z,535.00
2023-05-16T09:54:33.154Z,514.00
2023-05-16T09:55:33.176Z,509.00
2023-05-16T09:56:33.123Z,501.00
2023-05-16T09:57:33.157Z,496.00
2023-05-16T09:58:33.133Z,492.00
2023-05-16T09:59:33.113Z,489.00
2023-05-16T10:00:33.144Z,489.00
2023-05-16T10:01:33.587Z,487.00
2023-05-16T10:02:33.167Z,483.00
2023-05-16T10:03:33.180Z,479.00
2023-05-16T10:04:33.140Z,474.00
2023-05-16T10:05:33.063Z,472.00
2023-05-16T10:06:33.078Z,469.00
2023-05-16T10:07:33.069Z,467.00
2023-05-16T10:08:33.059Z,465.00
2023-05-16T10:09:33.036Z,460.00
2023-05-16T10:10:33.031Z,459.00
2023-05-16T10:11:33.041Z,462.00
2023-05-16T10:12:33.015Z,460.00
2023-05-16T10:13:33.044Z,459.00
2023-05-16T10:14:33.001Z,457.00
2023-05-16T10:15:33.014Z,457.00
2023-05-16T10:16:33.290Z,454.00
2023-05-16T10:17:32.996Z,452.00
2023-05-16T10:18:33.025Z,452.00
2023-05-16T10:19:33.003Z,449.00
2023-05-16T10:20:33.023Z,448.00
2023-05-16T10:21:33.099Z,447.00
2023-05-16T10:22:33.113Z,446.00
2023-05-16T10:23:33.195Z,444.00
2023-05-16T10:24:33.230Z,443.00
2023-05-16T10:25:33.326Z,443.00
2023-05-16T10:26:33.376Z,441.00
2023-05-16T10:27:33.433Z,440.00
2023-05-16T10:28:33.483Z,442.00
2023-05-16T10:29:46.499Z,442.00
2023-05-16T10:30:34.537Z,440.00
2023-05-16T10:31:33.982Z,440.00
2023-05-16T10:32:33.573Z,440.00
2023-05-16T10:33:33.537Z,439.00
2023-05-16T10:34:33.542Z,439.00
2023-05-16T10:35:33.479Z,445.00
2023-05-16T10:36:33.920Z,554.00
2023-05-16T10:37:33.520Z,580.00
2023-05-16T10:38:33.501Z,577.00
2023-05-16T10:39:33.485Z,578.00
2023-05-16T10:40:33.483Z,575.00
2023-05-16T10:41:33.486Z,620.00
2023-05-16T10:42:33.566Z,634.00
2023-05-16T10:43:33.615Z,633.00
2023-05-16T10:44:33.601Z,626.00
2023-05-16T10:45:33.636Z,619.00
2023-05-16T10:46:33.730Z,619.00
2023-05-16T10:47:33.682Z,611.00
2023-05-16T10:48:33.745Z,607.00
2023-05-16T10:49:33.721Z,607.00
2023-05-16T10:50:33.741Z,613.00
2023-05-16T10:51:34.418Z,615.00
2023-05-16T10:52:33.975Z,612.00
2023-05-16T10:53:33.902Z,613.00
2023-05-16T10:54:34.202Z,620.00
2023-05-16T10:55:33.904Z,630.00
2023-05-16T10:56:33.855Z,639.00
2023-05-16T10:57:33.922Z,659.00
2023-05-16T10:58:33.916Z,712.00
2023-05-16T10:59:33.922Z,720.00
2023-05-16T11:00:33.951Z,732.00
2023-05-16T11:01:34.031Z,742.00
2023-05-16T11:02:34.117Z,742.00
2023-05-16T11:03:34.054Z,743.00
2023-05-16T11:04:33.938Z,750.00
2023-05-16T11:05:33.997Z,750.00
2023-05-16T11:06:33.968Z,776.00
2023-05-16T11:07:34.017Z,726.00
2023-05-16T11:08:34.021Z,716.00
2023-05-16T11:09:34.042Z,718.00
2023-05-16T11:10:34.942Z,688.00
2023-05-16T11:11:34.044Z,679.00
2023-05-16T11:12:34.039Z,669.00
2023-05-16T11:13:34.061Z,663.00
2023-05-16T11:14:34.053Z,665.00
2023-05-16T11:15:34.090Z,671.00
2023-05-16T11:16:34.188Z,678.00
2023-05-16T11:17:34.479Z,675.00
2023-05-16T11:18:34.353Z,662.00
2023-05-16T11:19:34.251Z,652.00
2023-05-16T11:20:34.412Z,640.00
2023-05-16T11:21:34.293Z,627.00
2023-05-16T11:22:34.375Z,626.00
2023-05-16T11:23:34.376Z,647.00
2023-05-16T11:24:34.399Z,674.00
2023-05-16T11:25:34.391Z,661.00
2023-05-16T11:26:34.449Z,648.00
2023-05-16T11:27:34.952Z,675.00
2023-05-16T11:28:34.454Z,747.00
2023-05-16T11:29:34.489Z,770.00
2023-05-16T11:30:34.477Z,775.00
2023-05-16T11:31:34.493Z,770.00
2023-05-16T11:32:36.072Z,767.00
2023-05-16T11:33:34.449Z,767.00
2023-05-16T11:34:34.463Z,759.00
2023-05-16T11:35:34.474Z,746.00
2023-05-16T11:36:34.435Z,722.00
2023-05-16T11:37:34.920Z,703.00
2023-05-16T11:38:34.481Z,692.00
2023-05-16T11:39:34.542Z,684.00
2023-05-16T11:40:34.477Z,673.00
2023-05-16T11:41:34.501Z,661.00
2023-05-16T11:42:34.537Z,648.00
2023-05-16T11:43:34.511Z,640.00
2023-05-16T11:44:34.532Z,634.00
2023-05-16T11:45:36.435Z,628.00
2023-05-16T11:46:34.567Z,627.00
2023-05-16T11:47:34.596Z,622.00
2023-05-16T11:48:36.527Z,614.00
2023-05-16T11:49:34.566Z,608.00
2023-05-16T11:50:34.592Z,605.00
2023-05-16T11:51:34.586Z,607.00
2023-05-16T11:52:34.710Z,605.00
2023-05-16T11:53:34.570Z,602.00
2023-05-16T11:54:34.608Z,600.00
2023-05-16T11:56:34.615Z,599.00
2023-05-16T11:57:34.560Z,599.00
2023-05-16T11:58:34.545Z,598.00
2023-05-16T11:59:34.562Z,594.00
2023-05-16T12:00:34.560Z,589.00
2023-05-16T12:01:34.545Z,586.00
2023-05-16T12:02:34.630Z,584.00
2023-05-16T12:03:34.581Z,581.00
2023-05-16T12:04:34.788Z,579.00
2023-05-16T12:05:35.577Z,576.00
2023-05-16T12:06:34.522Z,574.00
2023-05-16T12:07:34.488Z,571.00
2023-05-16T12:08:34.481Z,567.00
2023-05-16T12:09:34.463Z,564.00
2023-05-16T12:10:34.986Z,561.00
2023-05-16T12:11:34.483Z,556.00
2023-05-16T12:12:34.456Z,553.00
2023-05-16T12:13:34.458Z,551.00
2023-05-16T12:14:34.482Z,551.00
2023-05-16T12:15:34.454Z,549.00
2023-05-16T12:16:34.507Z,545.00
2023-05-16T12:17:34.486Z,546.00
2023-05-16T12:18:34.486Z,543.00
2023-05-16T12:19:34.459Z,541.00
2023-05-16T12:20:34.433Z,539.00
2023-05-16T12:21:34.419Z,535.00
2023-05-16T12:22:34.413Z,531.00
2023-05-16T12:23:34.437Z,527.00
2023-05-16T12:24:34.407Z,522.00
2023-05-16T12:25:34.372Z,520.00
2023-05-16T12:26:34.368Z,519.00
2023-05-16T12:27:34.382Z,519.00
2023-05-16T12:28:34.378Z,518.00
2023-05-16T12:29:34.341Z,515.00